createdAt,value
2022-10-23T00:00:36.463Z,100500.28
2022-10-23T00:06:03.594Z,100503.56
2022-10-23T00:11:32.185Z,100490.44
2022-10-23T00:16:55.066Z,100482.44
2022-10-23T00:22:23.021Z,100482.56
2022-10-23T00:27:56.794Z,100492.09
2022-10-23T00:33:37.077Z,100495.41
2022-10-23T00:39:06.820Z,100492.50
2022-10-23T00:57:01.046Z,100485.19
2022-10-23T01:02:23.730Z,100488.09
2022-10-23T01:08:04.917Z,100493.19
2022-10-23T01:13:42.460Z,100496.78
2022-10-23T01:19:19.791Z,100497.94
2022-10-23T01:24:59.663Z,100492.50
2022-10-23T01:30:33.954Z,100488.41
2022-10-23T01:36:08.189Z,100482.47
2022-10-23T01:41:36.213Z,100477.72
2022-10-23T01:47:14.173Z,100470.41
2022-10-23T01:52:43.626Z,100473.84
2022-10-23T01:58:08.808Z,100483.41
2022-10-23T02:09:33.305Z,100467.34
2022-10-23T02:15:08.818Z,100466.22
2022-10-23T02:26:21.848Z,100463.19
2022-10-23T02:31:52.022Z,100457.25
2022-10-23T02:42:56.036Z,100443.38
2022-10-23T02:48:25.123Z,100441.31
2022-10-23T02:54:02.947Z,100441.41
2022-10-23T03:05:37.280Z,100443.06
2022-10-23T03:11:14.106Z,100438.38
2022-10-23T03:16:55.319Z,100438.81
2022-10-23T03:22:20.271Z,100435.63
2022-10-23T03:27:48.706Z,100450.72
2022-10-23T03:33:14.283Z,100436.09
2022-10-23T03:38:42.131Z,100446.84
2022-10-23T03:44:15.340Z,100428.63
2022-10-23T03:49:45.854Z,100431.53
2022-10-23T03:55:12.203Z,100412.47
2022-10-23T04:01:02.458Z,100416.03
2022-10-23T04:06:31.133Z,100423.13
2022-10-23T04:11:56.484Z,100432.09
2022-10-23T04:17:25.385Z,100433.22
2022-10-23T04:23:06.290Z,100431.84
2022-10-23T04:28:46.383Z,100437.66
2022-10-23T04:34:46.227Z,100435.03
2022-10-23T04:40:34.293Z,100437.78
2022-10-23T04:46:10.666Z,100423.31
2022-10-23T04:51:47.098Z,100429.53
2022-10-23T04:57:29.925Z,100423.72
2022-10-23T05:02:55.535Z,100415.16
2022-10-23T05:08:41.449Z,100423.03
2022-10-23T05:14:08.233Z,100422.34
2022-10-23T05:19:41.105Z,100410.06
2022-10-23T05:25:25.643Z,100403.84
2022-10-23T05:30:50.717Z,100410.19
2022-10-23T05:36:19.981Z,100404.81
2022-10-23T05:41:51.310Z,100410.06
2022-10-23T05:47:21.258Z,100410.88
2022-10-23T05:52:49.995Z,100399.69
2022-10-23T05:58:32.311Z,100389.19
2022-10-23T06:03:56.869Z,100386.44
2022-10-23T06:09:23.185Z,100394.31
2022-10-23T06:14:50.966Z,100405.34
2022-10-23T06:20:27.950Z,100405.75
2022-10-23T06:25:57.335Z,100405.19
2022-10-23T06:31:32.494Z,100398.25
2022-10-23T06:36:58.091Z,100403.75
2022-10-23T06:42:42.521Z,100408.53
2022-10-23T06:48:25.342Z,100414.31
2022-10-23T06:54:04.592Z,100419.34
2022-10-23T06:59:34.659Z,100431.78
2022-10-23T07:05:13.545Z,100426.19
2022-10-23T07:10:49.373Z,100419.63
2022-10-23T07:16:33.559Z,100422.72
2022-10-23T07:27:59.312Z,100412.63
2022-10-23T07:33:45.351Z,100417.88
2022-10-23T07:39:32.695Z,100408.19
2022-10-23T07:45:21.239Z,100422.34
2022-10-23T07:51:09.673Z,100428.59
2022-10-23T07:56:36.900Z,100411.59
2022-10-23T08:02:07.570Z,100416.75
2022-10-23T08:07:48.287Z,100404.44
2022-10-23T08:13:29.326Z,100390.13
2022-10-23T08:18:53.834Z,100393.28
2022-10-23T08:24:39.341Z,100370.84
2022-10-23T08:30:08.178Z,100376.00
2022-10-23T08:35:36.403Z,100377.34
2022-10-23T08:41:07.794Z,100373.59
2022-10-23T08:46:41.812Z,100375.78
2022-10-23T08:52:13.194Z,100379.44
2022-10-23T08:57:45.634Z,100373.47
2022-10-23T09:03:21.072Z,100367.19
2022-10-23T09:08:59.157Z,100378.59
2022-10-23T09:14:51.263Z,100378.22
2022-10-23T09:20:32.271Z,100378.75
2022-10-23T09:26:01.103Z,100376.75
2022-10-23T09:31:29.553Z,100374.16
2022-10-23T09:36:57.739Z,100380.41
2022-10-23T09:42:27.583Z,100376.34
2022-10-23T09:48:22.231Z,100381.25
2022-10-23T09:53:54.492Z,100380.47
2022-10-23T09:59:24.889Z,100374.06
2022-10-23T10:04:49.080Z,100371.72
2022-10-23T10:10:29.828Z,100363.97
2022-10-23T10:16:05.700Z,100348.53
2022-10-23T10:21:36.917Z,100346.06
2022-10-23T10:27:19.417Z,100332.06
2022-10-23T10:33:05.068Z,100313.97
2022-10-23T10:38:53.609Z,100312.00
2022-10-23T10:44:46.582Z,100315.03
2022-10-23T10:50:27.656Z,100309.75
2022-10-23T10:55:56.210Z,100291.91
2022-10-23T11:01:30.085Z,100293.25
2022-10-23T11:07:26.414Z,100291.50
2022-10-23T11:13:00.240Z,100281.91
2022-10-23T11:18:48.402Z,100272.38
2022-10-23T11:24:55.744Z,100269.13
2022-10-23T11:30:41.764Z,100249.59
2022-10-23T11:36:20.917Z,100243.00
2022-10-23T11:41:51.443Z,100241.53
2022-10-23T11:47:49.901Z,100230.81
2022-10-23T11:53:31.140Z,100212.28
2022-10-23T11:59:00.998Z,100202.09
2022-10-23T12:04:30.250Z,100191.44
2022-10-23T12:10:22.678Z,100177.38
2022-10-23T12:16:00.974Z,100173.22
2022-10-23T12:21:28.899Z,100177.59
2022-10-23T12:27:20.175Z,100173.97
2022-10-23T12:33:08.620Z,100172.59
2022-10-23T12:38:37.368Z,100171.56
2022-10-23T12:44:06.959Z,100148.66
2022-10-23T12:49:41.129Z,100140.09
2022-10-23T12:55:16.158Z,100127.81
2022-10-23T13:00:40.785Z,100119.22
2022-10-23T13:06:08.402Z,100123.09
2022-10-23T13:11:38.036Z,100120.63
2022-10-23T13:17:23.368Z,100121.22
2022-10-23T13:22:54.163Z,100118.75
2022-10-23T13:28:32.520Z,100117.97
2022-10-23T13:34:09.433Z,100108.56
2022-10-23T13:39:35.522Z,100095.66
2022-10-23T13:44:59.084Z,100087.47
2022-10-23T13:50:26.873Z,100071.50
2022-10-23T13:55:58.657Z,100074.91
2022-10-23T14:01:26.952Z,100070.59
2022-10-23T14:07:00.423Z,100071.00
2022-10-23T14:12:24.914Z,100069.56
2022-10-23T14:23:39.167Z,100053.34
2022-10-23T14:29:06.892Z,100035.75
2022-10-23T14:34:35.840Z,100029.38
2022-10-23T14:40:04.907Z,100011.97
2022-10-23T14:45:30.124Z,100022.38
2022-10-23T14:51:10.981Z,100012.34
2022-10-23T14:56:49.121Z,100008.03
2022-10-23T15:02:23.012Z,100013.31
2022-10-23T15:08:17.009Z,100014.09
2022-10-23T15:13:44.209Z,100008.09
2022-10-23T15:19:18.125Z,100008.06
2022-10-23T15:24:45.708Z,100004.97
2022-10-23T15:36:11.137Z,99986.38
2022-10-23T15:41:39.379Z,99984.03
2022-10-23T15:47:27.504Z,99979.19
2022-10-23T15:52:58.019Z,99978.13
2022-10-23T15:58:27.082Z,99962.94
2022-10-23T16:03:54.897Z,99965.13
2022-10-23T16:09:32.798Z,99955.91
2022-10-23T16:14:58.802Z,99934.66
2022-10-23T16:20:25.187Z,99927.47
2022-10-23T16:25:54.407Z,99903.38
2022-10-23T16:31:25.903Z,99898.63
2022-10-23T16:36:54.376Z,99908.19
2022-10-23T16:47:43.829Z,99885.97
2022-10-23T16:53:08.981Z,99872.81
2022-10-23T16:58:31.835Z,99865.34
2022-10-23T17:04:07.699Z,99861.97
2022-10-23T17:09:40.499Z,99871.63
2022-10-23T17:15:04.721Z,99876.41
2022-10-23T17:20:41.966Z,99875.91
2022-10-23T17:26:13.703Z,99876.41
2022-10-23T17:31:47.621Z,99870.16
2022-10-23T17:37:24.634Z,99851.69
2022-10-23T17:42:55.510Z,99859.50
2022-10-23T17:48:21.893Z,99863.03
2022-10-23T17:53:51.146Z,99854.19
2022-10-23T17:59:29.363Z,99840.69
2022-10-23T18:05:02.695Z,99838.34
2022-10-23T18:10:43.365Z,99830.72
2022-10-23T18:16:11.536Z,99816.59
2022-10-23T18:21:39.020Z,99805.38
2022-10-23T18:27:04.855Z,99800.97
2022-10-23T18:32:37.282Z,99798.91
2022-10-23T18:38:11.314Z,99806.38
2022-10-23T18:43:43.649Z,99798.97
2022-10-23T18:49:26.251Z,99787.91
2022-10-23T18:55:00.046Z,99789.97
2022-10-23T19:00:44.173Z,99801.66
2022-10-23T19:06:20.455Z,99792.53
2022-10-23T19:11:46.924Z,99794.31
2022-10-23T19:17:15.304Z,99782.91
2022-10-23T19:22:44.730Z,99784.50
2022-10-23T19:28:34.160Z,99761.44
2022-10-23T19:34:10.816Z,99750.41
2022-10-23T19:39:35.735Z,99732.81
2022-10-23T19:44:58.394Z,99716.47
2022-10-23T19:50:23.301Z,99720.38
2022-10-23T19:55:49.463Z,99716.38
2022-10-23T20:01:22.919Z,99724.97
2022-10-23T20:06:51.665Z,99725.59
2022-10-23T20:12:20.856Z,99724.75
2022-10-23T20:17:58.238Z,99755.50
2022-10-23T20:29:15.813Z,99811.66
2022-10-23T20:34:38.981Z,99800.91
2022-10-23T20:40:09.683Z,99817.91
2022-10-23T20:45:47.118Z,99842.38
2022-10-23T20:51:21.257Z,99860.53
2022-10-23T21:02:54.756Z,99925.47
2022-10-23T21:08:32.310Z,99957.88
2022-10-23T21:19:47.481Z,99948.28
2022-10-23T21:30:57.059Z,99950.66
2022-10-23T21:36:34.201Z,99936.97
2022-10-23T21:42:08.736Z,99945.25
2022-10-23T21:47:43.435Z,99930.56
2022-10-23T21:53:13.758Z,99931.75
2022-10-23T21:58:43.871Z,99932.91
2022-10-23T22:04:19.117Z,99933.28
2022-10-23T22:10:01.627Z,99904.38
2022-10-23T22:15:48.174Z,99870.81
2022-10-23T22:21:20.364Z,99863.97
2022-10-23T22:26:55.610Z,99857.34
2022-10-23T22:32:29.161Z,99883.63
2022-10-23T22:38:01.116Z,99902.28
2022-10-23T22:43:40.006Z,99897.19
2022-10-23T22:49:12.728Z,99897.88
2022-10-23T22:54:37.883Z,99882.72
2022-10-23T23:00:04.454Z,99892.69
2022-10-23T23:05:28.867Z,99882.69
2022-10-23T23:10:57.823Z,99877.59
2022-10-23T23:16:26.055Z,99864.31
2022-10-23T23:21:55.874Z,99857.41
2022-10-23T23:27:25.881Z,99865.50
2022-10-23T23:32:55.490Z,99874.59
2022-10-23T23:38:23.759Z,99878.38
2022-10-23T23:44:07.777Z,99869.97
2022-10-23T23:49:56.823Z,99865.41
2022-10-23T23:55:25.400Z,99875.00
